Time;durP1;ratioP1;P1;durP2;ratioP2;P2;SDS_P1;SDS_P2;PMS_P1;PMS_P2;Temp;Humidity;BMP_temperature;BMP_pressure;BME280_temperature;BME280_humidity;BME280_pressure;Samples;Min_cycle;Max_cycle;Signal;HPM_P1;HPM_P2
2021/12/29 00:00:59;;;;;;;4.22;1.05;;;10.10;99.90;;;;;;5076683;28;20205;-69
2021/12/29 00:03:26;;;;;;;1.00;0.90;;;10.10;99.90;;;;;;5076877;28;20199;-68
2021/12/29 00:05:53;;;;;;;2.03;1.08;;;10.00;99.90;;;;;;5076401;28;20229;-68
2021/12/29 00:08:20;;;;;;;1.60;1.10;;;10.00;99.90;;;;;;5076653;28;20209;-68
2021/12/29 00:10:54;;;;;;;3.95;0.88;;;10.00;99.90;;;;;;5076340;28;20203;-68
2021/12/29 00:13:22;;;;;;;2.10;1.10;;;10.10;99.90;;;;;;5076245;28;20215;-69
2021/12/29 00:15:56;;;;;;;1.65;0.82;;;10.10;99.90;;;;;;5076061;28;20720;-68
2021/12/29 00:18:24;;;;;;;3.78;1.27;;;10.10;99.90;;;;;;5076397;28;20286;-69
2021/12/29 00:20:50;;;;;;;2.95;1.00;;;10.10;99.90;;;;;;5076378;28;20691;-68
2021/12/29 00:23:17;;;;;;;3.17;1.33;;;10.10;99.90;;;;;;5075912;28;20201;-69
2021/12/29 00:25:44;;;;;;;1.92;0.80;;;10.00;99.90;;;;;;5075394;28;20708;-68
2021/12/29 00:28:11;;;;;;;3.17;0.90;;;10.00;99.90;;;;;;5076144;28;20207;-69
2021/12/29 00:30:39;;;;;;;2.83;0.93;;;10.00;99.90;;;;;;5075764;28;20672;-68
2021/12/29 00:33:06;;;;;;;3.97;1.10;;;10.00;99.90;;;;;;5076103;28;20226;-68
2021/12/29 00:35:34;;;;;;;3.22;1.08;;;10.00;99.90;;;;;;5075535;28;20606;-69
2021/12/29 00:38:02;;;;;;;4.20;0.85;;;10.10;99.90;;;;;;5076027;28;20211;-69
2021/12/29 00:40:29;;;;;;;3.20;2.70;;;10.10;99.90;;;;;;5075980;28;20646;-69
2021/12/29 00:42:59;;;;;;;3.30;1.10;;;10.10;99.90;;;;;;5075787;28;20195;-69
2021/12/29 00:45:26;;;;;;;3.28;1.00;;;10.10;99.90;;;;;;5075446;28;20227;-68
2021/12/29 00:47:55;;;;;;;1.52;0.65;;;10.10;99.90;;;;;;5075880;28;20210;-68
2021/12/29 00:50:22;;;;;;;1.80;0.60;;;10.10;99.90;;;;;;5075748;28;20298;-69
2021/12/29 00:52:49;;;;;;;2.28;0.70;;;10.00;99.90;;;;;;5074837;28;20614;-68
2021/12/29 00:55:17;;;;;;;2.35;1.17;;;10.00;99.90;;;;;;5075698;28;20223;-68
2021/12/29 00:57:45;;;;;;;1.33;0.70;;;10.00;99.90;;;;;;5075700;28;20203;-68
2021/12/29 01:00:18;;;;;;;1.25;0.68;;;10.10;99.90;;;;;;5075475;28;20203;-69
2021/12/29 01:02:45;;;;;;;2.20;0.85;;;10.00;99.90;;;;;;5075467;28;20187;-69
2021/12/29 01:05:15;;;;;;;1.38;0.73;;;10.00;99.90;;;;;;5074830;28;20225;-68
2021/12/29 01:07:42;;;;;;;0.82;0.70;;;10.00;99.90;;;;;;5075204;28;20226;-68
2021/12/29 01:10:12;;;;;;;2.55;1.15;;;9.90;99.90;;;;;;5074914;28;20677;-69
2021/12/29 01:12:46;;;;;;;1.58;0.63;;;9.90;99.90;;;;;;5074602;28;20207;-68
2021/12/29 01:15:14;;;;;;;2.40;0.90;;;9.90;99.90;;;;;;5074487;28;20229;-68
2021/12/29 01:17:41;;;;;;;1.63;0.90;;;9.90;99.90;;;;;;5074573;28;20207;-68
2021/12/29 01:20:10;;;;;;;1.88;0.68;;;9.80;99.90;;;;;;5074409;28;20601;-68
2021/12/29 01:22:38;;;;;;;1.92;0.77;;;9.90;99.90;;;;;;5074405;28;20206;-68
2021/12/29 01:25:06;;;;;;;0.90;0.50;;;9.90;99.90;;;;;;5073990;28;20207;-68
2021/12/29 01:27:34;;;;;;;1.08;0.60;;;9.90;99.90;;;;;;5074713;28;20656;-69
2021/12/29 01:30:01;;;;;;;1.55;0.90;;;9.90;99.90;;;;;;5074683;28;20699;-68
2021/12/29 01:32:27;;;;;;;0.93;0.70;;;9.90;99.90;;;;;;5074665;28;20218;-69
2021/12/29 01:34:54;;;;;;;0.60;0.43;;;9.90;99.90;;;;;;5074252;28;20207;-68
2021/12/29 01:37:21;;;;;;;0.77;0.70;;;9.90;99.90;;;;;;5074839;28;20613;-69
2021/12/29 01:39:49;;;;;;;1.42;0.57;;;9.90;99.90;;;;;;5074302;28;20578;-69
2021/12/29 01:42:16;;;;;;;0.52;0.52;;;9.90;99.90;;;;;;5074525;28;20279;-69
2021/12/29 01:44:43;;;;;;;1.38;0.50;;;9.90;99.90;;;;;;5074746;28;20209;-69
2021/12/29 01:47:10;;;;;;;1.95;0.80;;;9.90;99.90;;;;;;5074480;28;20219;-69
2021/12/29 01:49:38;;;;;;;2.65;0.80;;;9.90;99.90;;;;;;5074631;28;20560;-68
2021/12/29 01:52:11;;;;;;;0.90;0.60;;;10.00;99.90;;;;;;5074081;28;20203;-69
2021/12/29 01:54:41;;;;;;;1.65;0.40;;;10.00;99.90;;;;;;5074264;28;20203;-69
2021/12/29 01:57:11;;;;;;;0.40;0.38;;;10.00;99.90;;;;;;5073952;28;20223;-68
2021/12/29 01:59:38;;;;;;;0.50;0.50;;;10.00;99.90;;;;;;5074181;28;20206;-68
2021/12/29 02:02:06;;;;;;;1.48;0.60;;;10.10;99.90;;;;;;5074151;28;20213;-69
2021/12/29 02:04:33;;;;;;;1.05;0.50;;;10.10;99.90;;;;;;5073966;28;20248;-68
2021/12/29 02:07:00;;;;;;;1.05;0.55;;;10.10;99.90;;;;;;5074040;28;20229;-69
2021/12/29 02:09:28;;;;;;;1.10;0.40;;;10.10;99.90;;;;;;5073954;28;20688;-69
2021/12/29 02:11:55;;;;;;;1.00;0.50;;;10.10;99.90;;;;;;5073884;28;20203;-69
2021/12/29 02:14:23;;;;;;;1.17;1.08;;;10.10;99.90;;;;;;5073863;28;20735;-68
2021/12/29 02:16:51;;;;;;;1.00;0.50;;;10.10;99.90;;;;;;5074100;28;20226;-69
2021/12/29 02:19:18;;;;;;;0.88;0.60;;;10.10;99.90;;;;;;5073841;28;20760;-69
2021/12/29 02:21:54;;;;;;;1.35;0.60;;;10.10;99.90;;;;;;5074769;28;20297;-69
2021/12/29 02:24:33;;;;;;;2.47;0.50;;;10.10;99.90;;;;;;5074509;28;20259;-68
2021/12/29 02:27:00;;;;;;;0.95;0.50;;;10.20;99.90;;;;;;5074195;28;20226;-68
2021/12/29 02:29:27;;;;;;;1.77;0.47;;;10.10;99.90;;;;;;5073517;28;20237;-68
2021/12/29 02:31:54;;;;;;;1.48;0.47;;;10.20;99.90;;;;;;5073262;28;20690;-68
2021/12/29 02:34:21;;;;;;;3.17;0.70;;;10.20;99.90;;;;;;5073358;28;20222;-68
2021/12/29 02:36:49;;;;;;;1.20;0.50;;;10.10;99.90;;;;;;5073129;28;20309;-68
2021/12/29 02:39:20;;;;;;;0.80;0.50;;;10.10;99.90;;;;;;5073558;28;20668;-68
2021/12/29 02:41:53;;;;;;;1.08;0.50;;;10.10;99.90;;;;;;5073803;28;20190;-68
2021/12/29 02:44:25;;;;;;;0.77;0.60;;;10.20;99.90;;;;;;5073943;28;20248;-68
2021/12/29 02:46:53;;;;;;;0.65;0.50;;;10.10;99.90;;;;;;5073962;28;20230;-68
2021/12/29 02:49:20;;;;;;;1.48;0.60;;;10.10;99.90;;;;;;5073941;28;20218;-68
2021/12/29 02:51:49;;;;;;;1.23;0.60;;;10.20;99.90;;;;;;5073646;28;20199;-68
2021/12/29 02:54:17;;;;;;;0.55;0.52;;;10.20;99.90;;;;;;5073928;28;20261;-69
2021/12/29 02:56:48;;;;;;;0.70;0.50;;;10.20;99.90;;;;;;5073716;28;20580;-68
2021/12/29 02:59:16;;;;;;;0.40;0.40;;;10.20;99.90;;;;;;5074216;28;20213;-69
2021/12/29 03:01:43;;;;;;;0.40;0.40;;;10.20;99.90;;;;;;5073840;28;20203;-69
2021/12/29 03:04:11;;;;;;;0.95;0.43;;;10.20;99.90;;;;;;5073203;28;20760;-68
2021/12/29 03:06:39;;;;;;;1.75;0.52;;;10.20;99.90;;;;;;5073606;28;20250;-68
2021/12/29 03:09:13;;;;;;;0.43;0.40;;;10.30;99.90;;;;;;5073405;28;20686;-68
2021/12/29 03:11:40;;;;;;;0.70;0.50;;;10.20;99.90;;;;;;5073744;28;20207;-69
2021/12/29 03:14:07;;;;;;;0.70;0.45;;;10.30;99.90;;;;;;5073676;28;20260;-68
2021/12/29 03:16:34;;;;;;;0.50;0.50;;;10.30;99.90;;;;;;5076056;28;20282;-69
2021/12/29 03:19:02;;;;;;;1.30;0.50;;;10.30;99.90;;;;;;5076886;28;20226;-68
2021/12/29 03:21:29;;;;;;;1.10;0.80;;;10.30;99.90;;;;;;5077457;28;20207;-69
2021/12/29 03:23:56;;;;;;;0.30;0.30;;;10.40;99.90;;;;;;5076963;28;20195;-68
2021/12/29 03:26:24;;;;;;;0.50;0.32;;;10.30;99.90;;;;;;5077128;28;20250;-69
2021/12/29 03:28:51;;;;;;;0.90;0.60;;;10.30;99.90;;;;;;5077219;28;20203;-68
2021/12/29 03:31:21;;;;;;;0.65;0.40;;;10.40;99.90;;;;;;5077147;28;20203;-68
2021/12/29 03:33:48;;;;;;;0.50;0.43;;;10.40;99.90;;;;;;5077033;28;20215;-69
2021/12/29 03:36:17;;;;;;;0.30;0.30;;;10.40;99.90;;;;;;5076877;28;20644;-68
2021/12/29 03:38:50;;;;;;;0.77;0.60;;;10.40;99.90;;;;;;5076989;28;20302;-68
2021/12/29 03:41:19;;;;;;;0.98;0.60;;;10.30;99.90;;;;;;5076750;28;20207;-68
2021/12/29 03:43:48;;;;;;;0.70;0.30;;;10.30;99.90;;;;;;5076754;28;20691;-68
2021/12/29 03:46:16;;;;;;;0.47;0.40;;;10.30;99.90;;;;;;5077399;28;20309;-68
2021/12/29 03:48:44;;;;;;;0.88;0.32;;;10.30;99.90;;;;;;5076748;28;20203;-68
2021/12/29 03:51:11;;;;;;;3.33;0.45;;;10.30;99.90;;;;;;5076671;28;20576;-68
2021/12/29 03:53:38;;;;;;;0.98;0.40;;;10.30;99.90;;;;;;5076685;28;20284;-68
2021/12/29 03:56:05;;;;;;;0.50;0.40;;;10.30;99.90;;;;;;5076498;28;20219;-68
2021/12/29 03:58:32;;;;;;;0.57;0.30;;;10.30;99.90;;;;;;5076421;28;20203;-68
2021/12/29 04:01:04;;;;;;;0.50;0.50;;;10.30;99.90;;;;;;5077561;28;20557;-69
2021/12/29 04:03:32;;;;;;;0.50;0.40;;;10.30;99.90;;;;;;5076526;28;20179;-68
2021/12/29 04:05:59;;;;;;;1.52;0.50;;;10.40;99.90;;;;;;5076223;28;20222;-68
2021/12/29 04:08:26;;;;;;;1.02;0.30;;;10.40;99.90;;;;;;5076919;28;20203;-68
2021/12/29 04:10:52;;;;;;;0.60;0.47;;;10.30;99.90;;;;;;5076272;28;20293;-68
2021/12/29 04:13:19;;;;;;;0.50;0.30;;;10.30;99.90;;;;;;5075912;28;20222;-68
2021/12/29 04:15:46;;;;;;;0.50;0.40;;;10.30;99.90;;;;;;5075907;28;20650;-68
2021/12/29 04:18:26;;;;;;;1.13;0.40;;;10.30;99.90;;;;;;5075638;28;20694;-68
2021/12/29 04:20:57;;;;;;;0.40;0.40;;;10.30;99.90;;;;;;5076262;28;20194;-69
2021/12/29 04:23:26;;;;;;;0.45;0.45;;;10.30;99.90;;;;;;5075757;28;20190;-68
2021/12/29 04:25:54;;;;;;;0.70;0.40;;;10.30;99.90;;;;;;5076024;28;20318;-68
2021/12/29 04:28:25;;;;;;;0.68;0.35;;;10.30;99.90;;;;;;5074794;28;20270;-68
2021/12/29 04:30:55;;;;;;;0.68;0.30;;;10.30;99.90;;;;;;5075760;28;20660;-69
2021/12/29 04:33:24;;;;;;;3.25;0.40;;;10.30;99.90;;;;;;5076110;28;20226;-69
2021/12/29 04:35:53;;;;;;;1.33;0.40;;;10.30;99.90;;;;;;5075987;28;20257;-68
2021/12/29 04:38:24;;;;;;;1.13;0.50;;;10.10;99.90;;;;;;5075827;28;20305;-69
2021/12/29 04:40:52;;;;;;;1.20;0.50;;;10.10;99.90;;;;;;5075866;28;20305;-69
2021/12/29 04:43:20;;;;;;;0.70;0.35;;;10.10;99.90;;;;;;5075681;28;20201;-68
2021/12/29 04:45:48;;;;;;;0.50;0.40;;;10.10;99.90;;;;;;5075109;28;20229;-69
2021/12/29 04:48:15;;;;;;;0.93;0.35;;;10.00;99.90;;;;;;5075248;28;20622;-69
2021/12/29 04:50:52;;;;;;;1.48;0.45;;;9.90;99.90;;;;;;5075267;28;20226;-68
2021/12/29 04:53:20;;;;;;;1.02;0.90;;;9.80;99.90;;;;;;5074929;28;20312;-69
2021/12/29 04:55:49;;;;;;;0.90;0.90;;;9.90;99.90;;;;;;5074582;28;20317;-68
2021/12/29 04:58:18;;;;;;;0.60;0.47;;;10.00;99.90;;;;;;5074718;28;20673;-68
2021/12/29 05:00:47;;;;;;;0.60;0.35;;;10.10;99.90;;;;;;5074979;28;20285;-69
2021/12/29 05:03:14;;;;;;;1.02;0.63;;;10.10;99.90;;;;;;5075165;28;20203;-68
2021/12/29 05:05:53;;;;;;;0.80;0.70;;;10.10;99.90;;;;;;5074830;28;20222;-68
2021/12/29 05:08:29;;;;;;;1.30;0.80;;;10.20;99.90;;;;;;5075353;28;20286;-68
2021/12/29 05:10:58;;;;;;;2.35;0.95;;;10.20;99.90;;;;;;5075803;28;20190;-69
2021/12/29 05:13:26;;;;;;;1.25;0.98;;;10.20;99.90;;;;;;5074757;28;20592;-68
2021/12/29 05:15:55;;;;;;;2.88;1.05;;;10.20;99.90;;;;;;5074955;28;20219;-68
2021/12/29 05:18:22;;;;;;;1.95;0.75;;;10.10;99.90;;;;;;5074448;28;20249;-68
2021/12/29 05:20:49;;;;;;;1.63;0.90;;;10.10;99.90;;;;;;5074668;28;20682;-69
2021/12/29 05:23:16;;;;;;;1.70;1.10;;;10.10;99.90;;;;;;5075038;28;20213;-69
2021/12/29 05:25:44;;;;;;;1.77;1.40;;;10.10;99.90;;;;;;5074090;28;20704;-68
2021/12/29 05:28:11;;;;;;;1.40;1.20;;;10.10;99.90;;;;;;5074486;28;20297;-68
2021/12/29 05:30:38;;;;;;;1.65;0.80;;;10.10;99.90;;;;;;5074059;28;20666;-69
2021/12/29 05:33:05;;;;;;;1.35;1.25;;;10.20;99.90;;;;;;5074353;28;20203;-68
2021/12/29 05:35:33;;;;;;;0.70;0.68;;;10.20;99.90;;;;;;5074025;28;20222;-68
2021/12/29 05:38:00;;;;;;;3.35;0.80;;;10.20;99.90;;;;;;5073990;28;20721;-68
2021/12/29 05:40:28;;;;;;;1.52;1.10;;;10.20;99.90;;;;;;5074079;28;20215;-69
2021/12/29 05:42:57;;;;;;;2.03;1.48;;;10.20;99.90;;;;;;5074166;28;20225;-68
2021/12/29 05:45:25;;;;;;;1.60;1.30;;;10.20;99.90;;;;;;5073970;28;20219;-68
2021/12/29 05:47:52;;;;;;;1.40;0.90;;;10.10;99.90;;;;;;5074212;28;20213;-69
2021/12/29 05:50:23;;;;;;;2.30;1.00;;;10.00;99.90;;;;;;5074108;28;20203;-68
2021/12/29 05:52:50;;;;;;;3.47;0.80;;;10.10;99.90;;;;;;5073957;28;20203;-69
2021/12/29 05:55:17;;;;;;;1.02;1.00;;;10.00;99.90;;;;;;5074057;28;20313;-68
2021/12/29 05:57:44;;;;;;;2.67;0.90;;;10.00;99.90;;;;;;5074023;28;20770;-69
2021/12/29 06:00:15;;;;;;;2.15;0.93;;;10.10;99.90;;;;;;5074400;28;20588;-69
2021/12/29 06:02:42;;;;;;;0.70;0.70;;;10.10;99.90;;;;;;5074384;28;20213;-69
2021/12/29 06:05:10;;;;;;;1.90;1.10;;;10.20;99.90;;;;;;5074001;28;20680;-68
2021/12/29 06:07:38;;;;;;;1.05;0.93;;;10.30;99.90;;;;;;5074423;28;20211;-69
2021/12/29 06:10:07;;;;;;;1.40;0.90;;;10.30;99.90;;;;;;5074737;28;20202;-69
2021/12/29 06:12:35;;;;;;;2.50;0.90;;;10.30;99.90;;;;;;5074631;28;20205;-69
2021/12/29 06:15:04;;;;;;;1.15;1.00;;;10.20;99.90;;;;;;5073967;28;20229;-69
2021/12/29 06:17:32;;;;;;;4.00;1.17;;;10.10;99.90;;;;;;5074258;28;20199;-69
2021/12/29 06:19:59;;;;;;;1.67;0.70;;;10.10;99.90;;;;;;5074192;28;20256;-69
2021/12/29 06:22:26;;;;;;;1.38;0.75;;;10.20;99.90;;;;;;5073908;28;20676;-69
2021/12/29 06:24:53;;;;;;;2.05;0.70;;;10.10;99.90;;;;;;5074149;28;20205;-68
2021/12/29 06:27:21;;;;;;;1.10;0.80;;;10.00;99.90;;;;;;5074614;28;20203;-69
2021/12/29 06:29:48;;;;;;;2.75;1.08;;;9.90;99.90;;;;;;5074102;28;20238;-69
2021/12/29 06:32:15;;;;;;;2.67;0.80;;;10.00;99.90;;;;;;5073918;28;20553;-69
2021/12/29 06:34:45;;;;;;;1.08;0.65;;;9.90;99.90;;;;;;5074006;28;20225;-68
2021/12/29 06:37:13;;;;;;;1.05;0.80;;;10.00;99.90;;;;;;5074086;28;20225;-69
2021/12/29 06:39:41;;;;;;;1.58;0.80;;;10.00;99.90;;;;;;5073966;28;20229;-69
2021/12/29 06:42:08;;;;;;;1.13;0.60;;;10.00;99.90;;;;;;5074154;28;20277;-69
2021/12/29 06:44:35;;;;;;;2.80;2.10;;;9.90;99.90;;;;;;5074161;28;20201;-68
2021/12/29 06:47:02;;;;;;;10.70;6.45;;;9.90;99.90;;;;;;5073992;28;20708;-69
2021/12/29 06:49:29;;;;;;;2.97;1.10;;;9.90;99.90;;;;;;5074038;28;20570;-69
2021/12/29 06:51:57;;;;;;;2.85;1.00;;;9.90;99.90;;;;;;5077521;28;20202;-69
2021/12/29 06:54:24;;;;;;;1.00;0.90;;;9.80;99.90;;;;;;5078052;28;20222;-69
2021/12/29 06:56:51;;;;;;;1.35;0.77;;;9.80;99.90;;;;;;5078110;28;20617;-69
2021/12/29 06:59:18;;;;;;;1.33;0.93;;;9.80;99.90;;;;;;5077962;28;20208;-69
2021/12/29 07:01:45;;;;;;;0.85;0.70;;;9.80;99.90;;;;;;5078007;28;20203;-69
2021/12/29 07:04:12;;;;;;;2.38;0.80;;;9.80;99.90;;;;;;5078289;28;20198;-69
2021/12/29 07:06:39;;;;;;;2.13;1.17;;;9.80;99.90;;;;;;5077652;28;20250;-69
2021/12/29 07:09:07;;;;;;;2.03;0.93;;;9.80;99.90;;;;;;5078027;28;20289;-69
2021/12/29 07:11:36;;;;;;;3.17;0.90;;;9.80;99.90;;;;;;5077961;28;20199;-68
2021/12/29 07:14:04;;;;;;;1.70;1.00;;;9.80;99.90;;;;;;5077571;28;20218;-69
2021/12/29 07:16:31;;;;;;;2.15;0.70;;;9.90;99.90;;;;;;5077774;28;20626;-69
2021/12/29 07:18:58;;;;;;;2.08;1.65;;;9.90;99.90;;;;;;5077029;28;20209;-68
2021/12/29 07:21:25;;;;;;;2.13;0.95;;;9.90;99.90;;;;;;5077468;28;20203;-69
2021/12/29 07:23:54;;;;;;;1.20;1.00;;;9.90;99.90;;;;;;5078020;28;20205;-69
2021/12/29 07:26:23;;;;;;;1.13;0.80;;;9.90;99.90;;;;;;5077076;28;20313;-69
2021/12/29 07:28:50;;;;;;;3.13;2.35;;;10.00;99.90;;;;;;5077554;28;20299;-69
2021/12/29 07:31:18;;;;;;;1.40;1.30;;;10.00;99.90;;;;;;5077456;28;20209;-69
2021/12/29 07:33:45;;;;;;;1.13;0.70;;;10.00;99.90;;;;;;5077328;28;20203;-69
2021/12/29 07:36:12;;;;;;;1.27;0.80;;;10.00;99.90;;;;;;5076943;28;20250;-69
2021/12/29 07:38:39;;;;;;;1.38;0.93;;;10.00;99.90;;;;;;5077169;28;20202;-69
2021/12/29 07:41:07;;;;;;;2.20;0.93;;;10.00;99.90;;;;;;5076879;28;20233;-69
2021/12/29 07:43:38;;;;;;;4.18;0.80;;;10.00;99.90;;;;;;5077002;28;20298;-69
2021/12/29 07:46:05;;;;;;;2.50;0.80;;;9.90;99.90;;;;;;5076883;28;20260;-69
2021/12/29 07:48:32;;;;;;;3.70;2.03;;;9.90;99.90;;;;;;5076885;28;20205;-68
2021/12/29 07:51:00;;;;;;;2.05;1.20;;;10.00;99.90;;;;;;5076903;28;20601;-69
2021/12/29 07:53:27;;;;;;;2.15;1.10;;;10.00;99.90;;;;;;5077348;28;20206;-69
2021/12/29 07:55:54;;;;;;;3.10;1.45;;;10.00;99.90;;;;;;5076517;28;20233;-69
2021/12/29 07:58:22;;;;;;;1.80;1.52;;;10.00;99.90;;;;;;5076798;28;20203;-69
2021/12/29 08:00:51;;;;;;;2.67;1.98;;;10.00;99.90;;;;;;5076455;28;20202;-69
2021/12/29 08:03:18;;;;;;;1.23;1.13;;;10.00;99.90;;;;;;5076837;28;20625;-69
2021/12/29 08:05:45;;;;;;;1.85;1.00;;;9.90;99.90;;;;;;5076223;28;20218;-69
2021/12/29 08:08:12;;;;;;;2.65;1.23;;;9.90;99.90;;;;;;5076585;28;20205;-69
2021/12/29 08:10:40;;;;;;;2.00;1.30;;;9.80;99.90;;;;;;5076526;28;20289;-69
2021/12/29 08:13:09;;;;;;;7.72;1.40;;;9.80;99.90;;;;;;5076393;28;20232;-69
2021/12/29 08:15:37;;;;;;;0.90;0.90;;;9.80;99.90;;;;;;5076424;28;20227;-69
2021/12/29 08:18:06;;;;;;;1.67;1.15;;;9.90;99.90;;;;;;5076767;28;20300;-69
2021/12/29 08:20:35;;;;;;;1.67;1.20;;;9.90;99.90;;;;;;5076690;28;20207;-69
2021/12/29 08:23:02;;;;;;;1.58;1.30;;;9.90;99.90;;;;;;5077445;28;20211;-69
2021/12/29 08:25:29;;;;;;;3.60;2.10;;;9.90;99.90;;;;;;5076552;28;20237;-69
2021/12/29 08:27:56;;;;;;;3.15;2.25;;;10.00;99.90;;;;;;5076389;28;20213;-69
2021/12/29 08:30:23;;;;;;;4.50;3.30;;;10.10;99.90;;;;;;5075907;28;20256;-68
2021/12/29 08:32:50;;;;;;;2.45;2.25;;;10.10;99.90;;;;;;5075302;28;20209;-69
2021/12/29 08:35:19;;;;;;;1.70;1.60;;;10.20;99.90;;;;;;5075002;28;20227;-69
2021/12/29 08:37:45;;;;;;;4.65;2.00;;;10.30;99.90;;;;;;5075466;28;20198;-68
2021/12/29 08:40:13;;;;;;;4.45;3.03;;;10.30;99.90;;;;;;5075173;28;20301;-69
2021/12/29 08:42:41;;;;;;;3.53;2.63;;;10.30;99.90;;;;;;5075247;28;20199;-69
2021/12/29 08:45:10;;;;;;;1.88;1.73;;;10.40;99.90;;;;;;5075302;28;20294;-68
2021/12/29 08:47:37;;;;;;;2.28;1.48;;;10.40;99.90;;;;;;5075678;28;20684;-69
2021/12/29 08:50:10;;;;;;;2.10;1.50;;;10.40;99.90;;;;;;5076010;28;20203;-69
2021/12/29 08:52:39;;;;;;;2.25;2.08;;;10.50;99.90;;;;;;5076068;28;20190;-69
2021/12/29 08:55:08;;;;;;;1.35;1.25;;;10.50;99.90;;;;;;5075689;28;20226;-69
2021/12/29 08:57:35;;;;;;;1.92;1.30;;;10.50;99.90;;;;;;5075538;28;20207;-69
2021/12/29 09:00:04;;;;;;;1.45;1.35;;;10.50;99.90;;;;;;5075552;28;20209;-69
2021/12/29 09:02:31;;;;;;;4.40;3.10;;;10.50;99.90;;;;;;5074789;28;20290;-69
2021/12/29 09:04:58;;;;;;;2.90;2.40;;;10.50;99.90;;;;;;5074548;28;20187;-69
2021/12/29 09:07:24;;;;;;;3.45;2.40;;;10.40;99.90;;;;;;5074806;28;20202;-69
2021/12/29 09:09:53;;;;;;;2.50;1.95;;;10.40;99.90;;;;;;5074428;28;20207;-69
2021/12/29 09:12:19;;;;;;;1.90;1.20;;;10.50;99.90;;;;;;5074682;28;20229;-68
2021/12/29 09:14:46;;;;;;;1.55;1.15;;;10.50;99.90;;;;;;5074127;28;20261;-69
2021/12/29 09:17:13;;;;;;;4.20;1.52;;;10.60;99.90;;;;;;5074558;28;20222;-69
2021/12/29 09:19:42;;;;;;;2.70;1.30;;;10.60;99.90;;;;;;5074711;28;20199;-68
2021/12/29 09:22:09;;;;;;;1.13;1.13;;;10.60;99.90;;;;;;5074846;28;20250;-69
2021/12/29 09:24:36;;;;;;;1.52;1.42;;;10.60;99.90;;;;;;5074591;28;20209;-68
2021/12/29 09:27:04;;;;;;;1.60;1.30;;;10.60;99.90;;;;;;5074876;28;20222;-69
2021/12/29 09:29:33;;;;;;;1.48;1.05;;;10.60;99.90;;;;;;5074647;28;20199;-68
2021/12/29 09:32:00;;;;;;;1.42;1.33;;;10.60;99.90;;;;;;5074460;28;20302;-69
2021/12/29 09:34:27;;;;;;;7.22;4.32;;;10.50;99.90;;;;;;5074764;28;20290;-69
2021/12/29 09:36:54;;;;;;;3.55;1.83;;;10.60;99.90;;;;;;5074888;28;20587;-69
2021/12/29 09:39:21;;;;;;;2.42;1.30;;;10.60;99.90;;;;;;5074822;28;20198;-70
2021/12/29 09:41:48;;;;;;;1.00;1.00;;;10.70;99.90;;;;;;5074568;28;20210;-69
2021/12/29 09:44:16;;;;;;;1.65;1.17;;;10.70;99.90;;;;;;5074674;28;20732;-69
2021/12/29 09:46:43;;;;;;;1.90;1.10;;;10.70;99.90;;;;;;5074445;28;20219;-69
2021/12/29 09:49:10;;;;;;;1.83;1.17;;;10.80;99.90;;;;;;5074373;28;20671;-69
2021/12/29 09:51:38;;;;;;;1.25;1.13;;;10.80;99.90;;;;;;5074516;28;20233;-69
2021/12/29 09:54:05;;;;;;;1.30;1.20;;;10.90;99.90;;;;;;5074669;28;20592;-69
2021/12/29 09:56:32;;;;;;;3.80;1.05;;;10.90;99.90;;;;;;5074238;28;20226;-69
2021/12/29 09:58:59;;;;;;;1.17;0.95;;;11.00;99.90;;;;;;5073971;28;20677;-69
2021/12/29 10:01:29;;;;;;;1.48;0.80;;;10.90;99.90;;;;;;5074043;28;20217;-69
2021/12/29 10:03:56;;;;;;;2.05;1.10;;;11.00;99.90;;;;;;5073603;28;20687;-69
2021/12/29 10:06:23;;;;;;;1.90;1.17;;;11.00;99.90;;;;;;5073593;28;20225;-69
2021/12/29 10:08:50;;;;;;;1.25;1.15;;;11.10;99.90;;;;;;5073632;28;20294;-69
2021/12/29 10:11:19;;;;;;;1.90;1.30;;;11.20;99.90;;;;;;5073844;28;20297;-69
2021/12/29 10:13:47;;;;;;;3.00;2.25;;;11.20;99.90;;;;;;5073668;28;20209;-69
2021/12/29 10:16:16;;;;;;;2.17;1.98;;;11.20;99.90;;;;;;5073744;28;20254;-69
2021/12/29 10:18:48;;;;;;;3.50;2.28;;;11.20;99.90;;;;;;5074625;28;20203;-69
2021/12/29 10:21:16;;;;;;;3.95;1.98;;;11.20;99.90;;;;;;5074566;28;20202;-69
2021/12/29 10:23:46;;;;;;;1.70;1.60;;;11.20;99.90;;;;;;5074480;28;20614;-69
2021/12/29 10:26:15;;;;;;;2.60;1.60;;;11.20;99.90;;;;;;5073584;28;20223;-69
2021/12/29 10:28:44;;;;;;;2.20;1.73;;;11.20;99.90;;;;;;5075164;28;20202;-69
2021/12/29 10:31:13;;;;;;;3.10;1.60;;;11.10;99.90;;;;;;5074339;28;20568;-69
2021/12/29 10:33:48;;;;;;;1.65;1.55;;;11.10;99.90;;;;;;5074037;28;20209;-69
2021/12/29 10:36:20;;;;;;;1.67;1.30;;;11.10;99.90;;;;;;5073930;28;20226;-69
2021/12/29 10:38:51;;;;;;;2.22;2.03;;;11.10;99.90;;;;;;5074162;28;20214;-69
2021/12/29 10:41:20;;;;;;;2.53;2.00;;;11.00;99.90;;;;;;5074128;28;20227;-69
2021/12/29 10:43:57;;;;;;;2.22;1.60;;;11.00;99.90;;;;;;5073991;28;20206;-69
2021/12/29 10:46:26;;;;;;;3.92;1.75;;;11.10;99.90;;;;;;5073742;28;20277;-69
2021/12/29 10:48:56;;;;;;;3.38;1.50;;;11.10;99.90;;;;;;5074003;28;20252;-69
2021/12/29 10:51:28;;;;;;;3.05;1.70;;;11.20;99.90;;;;;;5074090;28;20211;-69
2021/12/29 10:54:06;;;;;;;2.17;1.52;;;11.20;99.90;;;;;;5074079;28;20202;-69
2021/12/29 10:56:33;;;;;;;2.97;1.75;;;11.20;99.90;;;;;;5073617;28;20226;-69
2021/12/29 10:59:11;;;;;;;2.40;1.67;;;11.30;99.90;;;;;;5074208;28;20199;-69
2021/12/29 11:01:40;;;;;;;3.25;1.58;;;11.30;99.90;;;;;;5074271;28;20216;-69
2021/12/29 11:04:12;;;;;;;2.30;1.35;;;11.30;99.90;;;;;;5073969;28;20239;-69
2021/12/29 11:06:43;;;;;;;3.45;1.38;;;11.30;99.90;;;;;;5074316;28;20584;-69
2021/12/29 11:09:11;;;;;;;1.90;1.70;;;11.30;99.90;;;;;;5074235;28;20320;-69
2021/12/29 11:11:41;;;;;;;2.55;1.70;;;11.30;99.90;;;;;;5073990;28;20299;-69
2021/12/29 11:14:10;;;;;;;2.50;1.30;;;11.30;99.90;;;;;;5074125;28;20687;-69
2021/12/29 11:16:37;;;;;;;1.48;1.25;;;11.30;99.90;;;;;;5073438;28;20223;-69
2021/12/29 11:19:04;;;;;;;2.50;1.35;;;11.30;99.90;;;;;;5073358;28;20199;-69
2021/12/29 11:21:36;;;;;;;1.38;1.10;;;11.30;99.90;;;;;;5073335;28;20209;-69
2021/12/29 11:24:13;;;;;;;2.15;1.20;;;11.20;99.90;;;;;;5073412;28;20187;-69
2021/12/29 11:26:42;;;;;;;1.58;1.42;;;11.20;99.90;;;;;;5073220;28;20225;-69
2021/12/29 11:29:10;;;;;;;2.28;1.50;;;11.20;99.90;;;;;;5073271;28;20207;-69
2021/12/29 11:31:39;;;;;;;1.42;1.20;;;11.20;99.90;;;;;;5073490;28;20229;-69
2021/12/29 11:34:18;;;;;;;1.98;1.15;;;11.30;99.90;;;;;;5073388;28;20293;-69
2021/12/29 11:36:59;;;;;;;2.55;1.80;;;11.30;99.90;;;;;;5074227;28;20261;-69
2021/12/29 11:39:26;;;;;;;1.75;1.10;;;11.30;99.90;;;;;;5076594;28;20187;-69
2021/12/29 11:41:53;;;;;;;1.90;1.20;;;11.30;99.90;;;;;;5077012;28;20203;-69
2021/12/29 11:44:20;;;;;;;1.38;1.27;;;11.30;99.90;;;;;;5076786;28;20207;-69
2021/12/29 11:46:47;;;;;;;2.85;1.17;;;11.20;99.90;;;;;;5076866;28;20230;-68
2021/12/29 11:49:17;;;;;;;1.10;0.90;;;11.20;99.90;;;;;;5076640;28;20205;-69
2021/12/29 11:51:55;;;;;;;5.25;1.15;;;11.20;99.90;;;;;;5076501;28;20671;-69
2021/12/29 11:54:32;;;;;;;1.92;1.27;;;11.20;99.90;;;;;;5076264;28;20633;-68
2021/12/29 11:57:09;;;;;;;2.00;1.00;;;11.10;99.90;;;;;;5076620;28;20237;-68
2021/12/29 11:59:35;;;;;;;1.52;1.33;;;11.10;99.90;;;;;;5076592;28;20278;-69
2021/12/29 12:02:03;;;;;;;1.35;0.93;;;11.10;99.90;;;;;;5076496;28;20203;-68
2021/12/29 12:04:30;;;;;;;1.88;0.95;;;11.20;99.90;;;;;;5076300;28;20207;-69
2021/12/29 12:07:04;;;;;;;0.93;0.90;;;11.20;99.90;;;;;;5077017;28;20223;-69
2021/12/29 12:09:45;;;;;;;2.85;1.50;;;11.20;99.90;;;;;;5076425;28;20234;-69
2021/12/29 12:12:13;;;;;;;3.33;1.50;;;11.20;99.90;;;;;;5076601;28;20191;-69
2021/12/29 12:14:47;;;;;;;2.80;1.05;;;11.20;99.90;;;;;;5076233;28;20207;-69
2021/12/29 12:17:16;;;;;;;1.33;1.15;;;11.30;99.90;;;;;;5075945;28;20249;-69
2021/12/29 12:19:45;;;;;;;1.70;1.40;;;11.40;99.90;;;;;;5075821;28;20623;-69
2021/12/29 12:22:14;;;;;;;3.55;1.60;;;11.40;99.90;;;;;;5075660;28;20206;-69
2021/12/29 12:24:43;;;;;;;3.70;1.52;;;11.50;99.90;;;;;;5075582;28;20183;-69
2021/12/29 12:27:15;;;;;;;2.00;1.05;;;11.60;99.90;;;;;;5075313;28;20219;-69
2021/12/29 12:29:45;;;;;;;2.00;1.48;;;11.60;99.90;;;;;;5075699;28;20191;-69
2021/12/29 12:32:17;;;;;;;2.80;1.73;;;11.70;99.90;;;;;;5075468;28;20209;-69
2021/12/29 12:34:50;;;;;;;4.63;2.85;;;11.60;99.90;;;;;;5075616;28;20268;-68
2021/12/29 12:37:21;;;;;;;4.43;2.10;;;11.70;99.90;;;;;;5075607;28;20226;-68
2021/12/29 12:39:56;;;;;;;4.93;3.42;;;11.70;99.90;;;;;;5075467;28;20221;-69
2021/12/29 12:42:23;;;;;;;2.92;1.35;;;11.70;99.90;;;;;;5075843;28;20196;-69
2021/12/29 12:44:51;;;;;;;3.40;1.98;;;11.70;99.90;;;;;;5075705;28;20207;-69
2021/12/29 12:47:17;;;;;;;2.80;1.55;;;11.80;99.90;;;;;;5075100;28;20768;-69
2021/12/29 12:49:51;;;;;;;3.70;1.70;;;11.80;99.90;;;;;;5074951;28;20679;-69
2021/12/29 12:52:23;;;;;;;4.60;2.00;;;11.80;99.90;;;;;;5075626;28;20218;-69
2021/12/29 12:54:52;;;;;;;2.75;1.60;;;11.80;99.90;;;;;;5075411;28;20635;-69